Time;durP1;ratioP1;P1;durP2;ratioP2;P2;SDS_P1;SDS_P2;PMS_P1;PMS_P2;Temp;Humidity;BMP_temperature;BMP_pressure;BME280_temperature;BME280_humidity;BME280_pressure;Samples;Min_cycle;Max_cycle;Signal;HPM_P1;HPM_P2
2023/04/02 00:00:32;;;;;;;5.73;1.90;;;3.30;99.90;;;;;;5074247;28;20234;-88
2023/04/02 00:03:00;;;;;;;4.63;1.80;;;3.30;99.90;;;;;;5073931;28;20214;-87
2023/04/02 00:05:33;;;;;;;5.73;1.90;;;3.30;99.90;;;;;;5073052;28;20241;-88
2023/04/02 00:08:27;;;;;;;3.07;1.80;;;3.30;99.90;;;;;;5072946;28;20174;-90
2023/04/02 00:11:02;;;;;;;4.23;1.53;;;3.40;99.90;;;;;;5059120;28;20482;-89
2023/04/02 00:13:46;;;;;;;5.57;1.97;;;3.30;99.90;;;;;;5056492;28;20208;-89
2023/04/02 00:16:15;;;;;;;5.23;1.83;;;3.30;99.90;;;;;;5056845;28;20178;-87
2023/04/02 00:18:50;;;;;;;5.40;2.07;;;3.20;99.90;;;;;;5057569;28;20249;-88
2023/04/02 00:21:25;;;;;;;7.47;1.90;;;3.30;99.90;;;;;;5057447;28;20169;-91
2023/04/02 00:24:09;;;;;;;4.43;1.80;;;3.20;99.90;;;;;;5057601;28;20166;-87
2023/04/02 00:26:39;;;;;;;4.73;1.80;;;3.20;99.90;;;;;;5076072;28;20196;-91
2023/04/02 00:29:06;;;;;;;3.50;1.60;;;3.10;99.90;;;;;;5076203;28;20185;-86
2023/04/02 00:31:33;;;;;;;3.73;1.57;;;3.20;99.90;;;;;;5075709;28;20173;-90
2023/04/02 00:34:01;;;;;;;7.00;1.40;;;3.10;99.90;;;;;;5076232;28;20208;-88
2023/04/02 00:36:30;;;;;;;3.53;1.60;;;3.10;99.90;;;;;;5077225;28;20196;-86
2023/04/02 00:38:58;;;;;;;4.03;1.90;;;3.10;99.90;;;;;;5075851;28;20283;-89
2023/04/02 00:41:31;;;;;;;6.70;1.80;;;3.10;99.90;;;;;;5075526;28;20265;-90
2023/04/02 00:43:59;;;;;;;6.60;1.50;;;3.10;99.90;;;;;;5077008;28;20154;-91
2023/04/02 00:46:49;;;;;;;5.53;1.57;;;3.10;99.90;;;;;;5077042;28;20185;-89
2023/04/02 00:49:28;;;;;;;3.73;1.30;;;3.10;99.90;;;;;;5077095;28;20244;-87
2023/04/02 00:52:01;;;;;;;6.73;1.87;;;3.00;99.90;;;;;;5077009;28;20915;-91
2023/04/02 00:54:31;;;;;;;3.23;1.53;;;3.00;99.90;;;;;;5070416;28;20210;-91
2023/04/02 00:56:57;;;;;;;4.60;1.33;;;3.00;99.90;;;;;;5056716;28;20247;-87
2023/04/02 00:59:41;;;;;;;2.27;1.20;;;3.00;99.90;;;;;;5056771;28;20181;-89
2023/04/02 01:02:21;;;;;;;3.30;1.50;;;3.00;99.90;;;;;;5055036;28;20169;-88
2023/04/02 01:05:18;;;;;;;8.27;1.70;;;3.00;99.90;;;;;;5055334;28;20229;-86
2023/04/02 01:08:11;;;;;;;4.13;1.57;;;3.00;99.90;;;;;;5056615;28;20189;-89
2023/04/02 01:10:50;;;;;;;3.57;1.00;;;3.00;99.90;;;;;;5055098;28;20186;-88
2023/04/02 01:13:40;;;;;;;2.67;1.13;;;3.00;99.90;;;;;;5055198;28;20178;-90
2023/04/02 01:16:31;;;;;;;3.40;1.20;;;3.00;99.90;;;;;;5056325;28;20550;-90
2023/04/02 01:19:27;;;;;;;3.33;1.40;;;2.90;99.90;;;;;;5055146;28;20174;-88
2023/04/02 01:22:29;;;;;;;6.03;1.60;;;3.00;99.90;;;;;;5056295;28;20166;-86
2023/04/02 01:25:03;;;;;;;8.83;2.20;;;2.90;99.90;;;;;;5045068;28;20569;-87
2023/04/02 01:27:44;;;;;;;3.27;1.33;;;2.90;99.90;;;;;;5056047;28;20158;-87
2023/04/02 01:30:11;;;;;;;1.80;1.33;;;3.00;99.90;;;;;;5055794;28;20174;-88
2023/04/02 01:32:38;;;;;;;2.33;1.00;;;3.00;99.90;;;;;;5054610;28;20609;-87
2023/04/02 01:35:04;;;;;;;2.47;1.17;;;3.00;99.90;;;;;;5055913;28;20301;-88
2023/04/02 01:37:52;;;;;;;5.33;1.20;;;3.00;99.90;;;;;;5056030;28;20177;-88
2023/04/02 01:40:30;;;;;;;5.10;1.30;;;3.00;99.90;;;;;;5054095;28;20209;-90
2023/04/02 01:43:20;;;;;;;2.73;1.37;;;3.00;99.90;;;;;;5055757;28;20525;-89
2023/04/02 01:45:49;;;;;;;3.83;1.17;;;3.00;99.90;;;;;;5055661;28;20597;-87
2023/04/02 01:48:23;;;;;;;4.20;1.40;;;3.00;99.90;;;;;;5055646;28;20651;-89
2023/04/02 01:50:53;;;;;;;3.90;1.27;;;3.00;99.90;;;;;;5054466;28;20200;-90
2023/04/02 01:53:22;;;;;;;2.93;1.20;;;2.90;99.90;;;;;;5054126;28;20640;-85
2023/04/02 01:58:27;;;;;;;2.70;1.00;;;3.00;99.90;;;;;;5298229;23;20479;-87
2023/04/02 02:01:00;;;;;;;3.63;1.63;;;2.90;99.90;;;;;;5015308;28;20179;-85
2023/04/02 02:03:27;;;;;;;3.20;1.20;;;2.90;99.90;;;;;;5003283;28;20610;-89
2023/04/02 02:05:54;;;;;;;3.43;1.33;;;2.90;99.90;;;;;;4994964;28;20521;-88
2023/04/02 02:08:45;;;;;;;5.97;1.30;;;2.90;99.90;;;;;;4998155;28;20207;-87
2023/04/02 02:11:15;;;;;;;3.87;1.00;;;2.90;99.90;;;;;;4995328;28;20176;-88
2023/04/02 02:13:57;;;;;;;5.07;1.00;;;2.90;99.90;;;;;;4995192;28;20626;-87
2023/04/02 02:16:26;;;;;;;2.43;1.10;;;2.90;99.90;;;;;;5011193;28;20602;-87
2023/04/02 02:18:59;;;;;;;2.93;1.10;;;2.90;99.90;;;;;;4994423;28;20184;-86
2023/04/02 02:21:56;;;;;;;5.57;1.20;;;3.00;99.90;;;;;;4995436;28;20172;-85
2023/04/02 02:24:30;;;;;;;1.67;1.20;;;3.00;99.90;;;;;;4991510;28;20188;-85
2023/04/02 02:27:23;;;;;;;4.67;1.40;;;3.00;99.90;;;;;;4994189;28;20184;-86
2023/04/02 02:29:55;;;;;;;4.33;0.90;;;3.00;99.90;;;;;;5010431;28;20168;-85
2023/04/02 02:32:26;;;;;;;3.07;1.10;;;2.90;99.90;;;;;;4994191;28;20268;-86
2023/04/02 02:35:01;;;;;;;4.50;1.20;;;3.00;99.90;;;;;;4993643;28;20617;-87
2023/04/02 02:37:32;;;;;;;2.83;1.40;;;3.00;99.90;;;;;;4994248;28;20172;-86
2023/04/02 02:40:04;;;;;;;3.20;1.00;;;3.00;99.90;;;;;;4993889;28;20187;-86
2023/04/02 02:42:38;;;;;;;6.47;1.27;;;3.00;99.90;;;;;;4995634;28;20240;-89
2023/04/02 02:45:16;;;;;;;3.53;1.00;;;2.90;99.90;;;;;;4994412;28;20274;-88
2023/04/02 02:47:44;;;;;;;5.90;1.00;;;3.00;99.90;;;;;;4994123;28;20172;-87
2023/04/02 02:50:36;;;;;;;4.43;1.53;;;3.00;99.90;;;;;;4993629;28;20586;-86
2023/04/02 02:53:06;;;;;;;4.13;1.00;;;3.00;99.90;;;;;;4993873;28;20267;-86
2023/04/02 02:55:36;;;;;;;3.37;0.80;;;3.00;99.90;;;;;;5003547;28;20179;-87
2023/04/02 02:58:05;;;;;;;3.47;1.13;;;3.00;99.90;;;;;;5014367;28;20219;-86
2023/04/02 03:00:34;;;;;;;4.57;1.20;;;3.00;99.90;;;;;;5013078;28;20624;-86
2023/04/02 03:03:08;;;;;;;3.90;1.03;;;3.00;99.90;;;;;;5014601;28;20178;-88
2023/04/02 03:05:34;;;;;;;2.93;1.00;;;3.00;99.90;;;;;;5013404;28;20183;-88
2023/04/02 03:08:02;;;;;;;4.53;1.23;;;3.10;99.90;;;;;;5013308;28;20249;-89
2023/04/02 03:10:52;;;;;;;2.97;1.03;;;3.00;99.90;;;;;;5014266;28;20521;-87
2023/04/02 03:13:34;;;;;;;3.13;1.20;;;3.00;99.90;;;;;;5030095;28;20508;-89
2023/04/02 03:16:10;;;;;;;5.27;1.50;;;3.00;99.90;;;;;;5014547;28;20160;-87
2023/04/02 03:18:54;;;;;;;2.17;0.90;;;3.00;99.90;;;;;;5013622;28;20171;-87
2023/04/02 03:21:47;;;;;;;7.87;1.50;;;3.10;99.90;;;;;;5014557;28;20179;-87
2023/04/02 03:24:19;;;;;;;4.13;1.00;;;3.00;99.90;;;;;;5013698;28;20176;-87
2023/04/02 03:27:01;;;;;;;2.63;1.03;;;3.00;99.90;;;;;;4995162;28;20188;-86
2023/04/02 03:29:31;;;;;;;1.67;0.80;;;3.00;99.90;;;;;;4994864;28;20176;-90
2023/04/02 03:32:05;;;;;;;3.43;1.30;;;3.00;99.90;;;;;;4993120;28;20231;-87
2023/04/02 03:34:41;;;;;;;5.60;1.20;;;3.00;99.90;;;;;;4993564;28;20215;-87
2023/04/02 03:37:19;;;;;;;2.40;0.80;;;3.10;99.90;;;;;;4993982;28;20222;-88
2023/04/02 03:40:14;;;;;;;3.97;1.20;;;3.10;99.90;;;;;;5009189;28;20226;-86
2023/04/02 03:42:56;;;;;;;2.83;1.10;;;3.00;99.90;;;;;;4993549;28;20196;-86
2023/04/02 03:45:31;;;;;;;4.57;1.00;;;3.10;99.90;;;;;;4994562;28;20183;-90
2023/04/02 03:48:05;;;;;;;3.90;0.90;;;3.10;99.90;;;;;;4998680;28;20510;-86
2023/04/02 03:50:55;;;;;;;2.90;1.13;;;3.10;99.90;;;;;;5013417;28;20179;-89
2023/04/02 03:53:26;;;;;;;2.23;1.00;;;3.00;99.90;;;;;;5013848;28;20524;-87
2023/04/02 03:55:53;;;;;;;3.23;1.03;;;3.00;99.90;;;;;;4996970;28;20208;-87
2023/04/02 03:58:32;;;;;;;2.90;0.97;;;3.00;99.90;;;;;;4998041;28;20219;-88
2023/04/02 04:01:23;;;;;;;2.57;1.13;;;3.10;99.90;;;;;;5013369;28;20171;-85
2023/04/02 04:03:54;;;;;;;4.07;1.70;;;3.10;99.90;;;;;;4998165;28;20211;-86
2023/04/02 04:06:31;;;;;;;2.53;0.97;;;3.10;99.90;;;;;;4997830;28;20180;-87
2023/04/02 04:09:31;;;;;;;3.87;0.97;;;3.20;99.90;;;;;;4997641;28;20171;-85
2023/04/02 04:12:12;;;;;;;2.90;1.10;;;3.20;99.90;;;;;;5012215;28;20184;-86
2023/04/02 04:14:45;;;;;;;1.90;0.97;;;3.20;99.90;;;;;;5012780;28;20310;-86
2023/04/02 04:17:53;;;;;;;1.50;0.80;;;3.10;99.90;;;;;;4997613;28;20168;-84
2023/04/02 04:20:28;;;;;;;2.83;0.90;;;3.10;99.90;;;;;;4997144;28;20630;-89
2023/04/02 04:22:54;;;;;;;4.97;1.53;;;3.10;99.90;;;;;;4997634;28;20250;-86
2023/04/02 04:25:32;;;;;;;6.50;1.10;;;3.00;99.90;;;;;;5012576;28;20180;-89
2023/04/02 04:28:25;;;;;;;3.87;1.03;;;3.00;99.90;;;;;;4996195;28;20171;-90
2023/04/02 04:31:21;;;;;;;1.20;0.90;;;3.00;99.90;;;;;;4997088;28;20168;-86
2023/04/02 04:33:53;;;;;;;2.97;1.27;;;3.10;99.90;;;;;;4997307;28;20195;-86
2023/04/02 04:36:27;;;;;;;2.00;1.00;;;3.10;99.90;;;;;;4996145;28;20184;-87
2023/04/02 04:38:58;;;;;;;3.27;1.40;;;3.10;99.90;;;;;;4997162;28;20250;-85
2023/04/02 04:41:31;;;;;;;2.07;1.10;;;3.10;99.90;;;;;;4996738;28;20192;-86
2023/04/02 04:44:12;;;;;;;2.33;1.33;;;3.10;99.90;;;;;;4996237;28;20194;-86
2023/04/02 04:46:56;;;;;;;2.87;1.30;;;3.10;99.90;;;;;;4996170;28;20522;-86
2023/04/02 04:49:43;;;;;;;4.37;1.07;;;3.10;99.90;;;;;;4996201;28;20486;-85
2023/04/02 04:52:28;;;;;;;3.37;1.10;;;3.10;99.90;;;;;;4996787;28;20251;-84
2023/04/02 04:54:54;;;;;;;1.77;1.10;;;3.10;99.90;;;;;;4996639;28;20200;-87
2023/04/02 04:57:35;;;;;;;1.50;1.20;;;3.10;99.90;;;;;;4994757;28;20580;-85
2023/04/02 05:00:14;;;;;;;2.90;1.20;;;3.10;99.90;;;;;;4995614;28;20607;-86
2023/04/02 05:02:56;;;;;;;1.50;1.07;;;3.10;99.90;;;;;;4995555;28;20266;-85
2023/04/02 05:05:29;;;;;;;4.17;1.10;;;3.10;99.90;;;;;;4995556;28;20175;-85
2023/04/02 05:08:04;;;;;;;4.00;1.20;;;3.10;99.90;;;;;;4996723;28;20172;-88
2023/04/02 05:10:45;;;;;;;6.43;1.60;;;3.10;99.90;;;;;;4996335;28;20163;-86
2023/04/02 05:13:18;;;;;;;3.07;1.10;;;3.10;99.90;;;;;;4996705;28;20175;-86
2023/04/02 05:16:00;;;;;;;2.83;1.00;;;3.10;99.90;;;;;;5011672;28;20184;-85
2023/04/02 05:18:42;;;;;;;1.07;0.90;;;3.10;99.90;;;;;;4995228;28;20605;-84
2023/04/02 05:21:18;;;;;;;2.00;1.13;;;3.10;99.90;;;;;;4995132;28;20179;-84
2023/04/02 05:24:01;;;;;;;6.07;1.20;;;3.20;99.90;;;;;;4986123;28;20183;-87
2023/04/02 05:26:36;;;;;;;2.57;1.07;;;3.20;99.90;;;;;;4976645;28;20169;-84
2023/04/02 05:29:14;;;;;;;3.10;0.90;;;3.20;99.90;;;;;;4976982;28;20167;-86
2023/04/02 05:31:48;;;;;;;3.20;1.37;;;3.10;99.90;;;;;;4975535;28;20175;-85
2023/04/02 05:34:26;;;;;;;6.03;0.97;;;3.20;99.90;;;;;;4984425;28;20226;-84
2023/04/02 05:36:53;;;;;;;3.23;1.13;;;3.20;99.90;;;;;;4987326;28;20176;-85
2023/04/02 05:39:23;;;;;;;2.93;1.20;;;3.10;99.90;;;;;;4987164;28;20204;-85
2023/04/02 05:42:03;;;;;;;1.73;0.97;;;3.10;99.90;;;;;;4976502;28;20185;-85
2023/04/02 05:44:37;;;;;;;4.20;1.10;;;3.20;99.90;;;;;;4989355;28;20192;-84
2023/04/02 05:47:12;;;;;;;4.57;1.00;;;3.20;99.90;;;;;;4994360;28;20239;-87
2023/04/02 05:49:38;;;;;;;2.07;0.90;;;3.20;99.90;;;;;;4995120;28;20179;-85
2023/04/02 05:52:10;;;;;;;8.27;1.10;;;3.30;99.90;;;;;;4994503;28;20184;-85
2023/04/02 05:54:55;;;;;;;1.27;0.90;;;3.30;99.90;;;;;;4995182;28;20226;-85
2023/04/02 05:57:30;;;;;;;3.87;1.17;;;3.30;99.90;;;;;;4994481;28;20223;-87
2023/04/02 06:00:02;;;;;;;2.30;1.00;;;3.30;99.90;;;;;;4993901;28;20555;-86
2023/04/02 06:02:33;;;;;;;3.53;1.00;;;3.30;99.90;;;;;;4994253;28;20183;-87
2023/04/02 06:05:14;;;;;;;4.00;1.20;;;3.30;99.90;;;;;;4994723;28;20176;-86
2023/04/02 06:08:00;;;;;;;12.10;4.67;;;3.30;99.90;;;;;;4994551;28;20179;-86
2023/04/02 06:10:36;;;;;;;3.70;1.60;;;3.40;99.90;;;;;;4994739;28;20206;-85
2023/04/02 06:13:14;;;;;;;2.93;1.77;;;3.30;99.90;;;;;;4994074;28;20178;-86
2023/04/02 06:15:40;;;;;;;4.07;1.20;;;3.40;99.90;;;;;;4983607;28;20211;-85
2023/04/02 06:18:29;;;;;;;2.03;1.10;;;3.30;99.90;;;;;;4991146;28;20220;-86
2023/04/02 06:20:56;;;;;;;2.13;0.90;;;3.30;99.90;;;;;;4974366;28;20181;-86
2023/04/02 06:23:51;;;;;;;4.23;1.33;;;3.30;99.90;;;;;;4975831;28;20171;-85
2023/04/02 06:26:25;;;;;;;3.57;1.93;;;3.40;99.90;;;;;;4994079;28;20183;-86
2023/04/02 06:29:07;;;;;;;2.80;1.23;;;3.40;99.90;;;;;;4994932;28;20199;-86
2023/04/02 06:31:55;;;;;;;2.20;1.00;;;3.50;99.90;;;;;;4993618;28;20183;-85
2023/04/02 06:34:24;;;;;;;7.33;5.83;;;3.50;99.90;;;;;;4988203;28;20685;-86
2023/04/02 06:36:54;;;;;;;1.97;0.83;;;3.50;99.90;;;;;;4993849;28;20176;-86
2023/04/02 06:39:22;;;;;;;1.67;1.00;;;3.60;99.90;;;;;;4995027;28;20167;-86
2023/04/02 06:42:00;;;;;;;3.83;1.13;;;3.60;99.90;;;;;;4994627;28;20183;-87
2023/04/02 06:44:33;;;;;;;1.13;1.00;;;3.60;99.90;;;;;;4993557;28;20960;-86
2023/04/02 06:47:18;;;;;;;3.97;1.40;;;3.60;99.90;;;;;;5009961;28;20626;-86
2023/04/02 06:50:06;;;;;;;7.83;2.10;;;3.60;99.90;;;;;;4993525;28;20176;-85
2023/04/02 06:52:43;;;;;;;23.07;11.43;;;3.60;99.90;;;;;;4991608;28;20626;-84
2023/04/02 06:55:27;;;;;;;32.63;15.40;;;3.60;99.90;;;;;;4989381;28;20303;-87
2023/04/02 06:57:55;;;;;;;49.33;24.70;;;3.60;99.90;;;;;;5012923;28;20261;-85
2023/04/02 07:00:38;;;;;;;15.47;6.47;;;3.60;99.90;;;;;;5012879;28;20273;-85
2023/04/02 07:03:28;;;;;;;4.03;1.23;;;3.50;99.90;;;;;;4997087;28;20191;-85
2023/04/02 07:05:54;;;;;;;20.80;8.07;;;3.50;99.90;;;;;;4995265;28;20680;-85
2023/04/02 07:08:20;;;;;;;5.20;2.50;;;3.50;99.90;;;;;;5000931;28;20270;-86
2023/04/02 07:10:46;;;;;;;7.63;1.20;;;3.50;99.90;;;;;;4993150;28;20282;-84
2023/04/02 07:13:16;;;;;;;90.00;38.67;;;3.50;99.90;;;;;;4993787;28;20196;-85
2023/04/02 07:15:46;;;;;;;3.53;1.70;;;3.50;99.90;;;;;;5000036;28;20195;-84
2023/04/02 07:18:32;;;;;;;27.30;13.40;;;3.50;99.90;;;;;;5005232;28;20176;-85
2023/04/02 07:20:59;;;;;;;7.63;2.60;;;3.60;99.90;;;;;;5009852;28;20512;-85
2023/04/02 07:23:26;;;;;;;4.30;1.77;;;3.60;99.90;;;;;;5013367;28;20187;-85
2023/04/02 07:25:56;;;;;;;5.60;1.90;;;3.60;99.90;;;;;;5005756;28;20773;-83
2023/04/02 07:28:22;;;;;;;5.33;2.33;;;3.60;99.90;;;;;;5017519;28;20176;-85
2023/04/02 07:30:48;;;;;;;1.97;1.07;;;3.60;99.90;;;;;;5002464;28;20288;-85
2023/04/02 07:33:23;;;;;;;2.43;1.00;;;3.70;99.90;;;;;;4999706;28;20233;-87
2023/04/02 07:35:50;;;;;;;4.10;1.20;;;3.70;99.90;;;;;;5006692;28;20198;-86
2023/04/02 07:38:15;;;;;;;1.97;1.00;;;3.80;99.90;;;;;;4998198;28;20188;-87
2023/04/02 07:40:41;;;;;;;2.83;1.13;;;3.70;99.90;;;;;;5000710;28;20195;-89
2023/04/02 07:43:07;;;;;;;2.37;1.17;;;3.70;99.90;;;;;;4998892;28;20187;-85
2023/04/02 07:45:33;;;;;;;5.63;1.13;;;3.80;99.90;;;;;;5012816;28;20174;-86
2023/04/02 07:48:11;;;;;;;2.40;1.10;;;3.70;99.90;;;;;;5013528;28;20186;-84
2023/04/02 07:50:37;;;;;;;3.33;1.10;;;3.70;99.90;;;;;;5008130;28;20190;-85
2023/04/02 07:53:03;;;;;;;10.30;4.30;;;3.70;99.90;;;;;;4998453;28;20179;-85
2023/04/02 07:55:28;;;;;;;2.77;1.00;;;3.80;99.90;;;;;;4994926;28;20547;-83
2023/04/02 07:57:57;;;;;;;5.80;2.27;;;3.80;99.90;;;;;;5000998;28;20223;-87
2023/04/02 08:00:24;;;;;;;2.27;1.00;;;3.80;99.90;;;;;;5015758;28;20278;-86
2023/04/02 08:02:51;;;;;;;6.33;1.43;;;3.80;99.90;;;;;;5004562;28;20195;-87
2023/04/02 08:05:17;;;;;;;2.53;0.97;;;3.80;99.90;;;;;;5028948;28;20171;-85
2023/04/02 08:07:50;;;;;;;2.20;0.90;;;3.90;99.90;;;;;;5001125;28;20182;-87
2023/04/02 08:10:18;;;;;;;2.83;0.93;;;3.90;99.90;;;;;;5008886;28;20205;-85
2023/04/02 08:12:44;;;;;;;1.80;1.00;;;3.90;99.90;;;;;;5008808;28;20175;-85
2023/04/02 08:15:14;;;;;;;5.70;1.10;;;3.90;99.90;;;;;;5016939;28;20245;-88
2023/04/02 08:17:41;;;;;;;2.07;0.90;;;3.90;99.90;;;;;;4999823;28;20186;-85
2023/04/02 08:20:14;;;;;;;4.00;1.40;;;3.80;99.90;;;;;;5008031;28;20179;-86
2023/04/02 08:22:47;;;;;;;3.70;1.67;;;3.80;99.90;;;;;;5000684;28;20188;-87
2023/04/02 08:25:12;;;;;;;5.93;1.97;;;3.80;99.90;;;;;;4996569;28;20188;-87
2023/04/02 08:27:38;;;;;;;6.87;1.00;;;3.90;99.90;;;;;;4996243;28;20188;-87
2023/04/02 08:30:06;;;;;;;7.00;1.00;;;3.90;99.90;;;;;;4996923;28;20184;-85
2023/04/02 08:32:32;;;;;;;4.53;1.00;;;3.90;99.90;;;;;;4995639;28;20180;-86
2023/04/02 08:34:57;;;;;;;3.50;1.03;;;3.90;99.90;;;;;;4997101;28;20282;-87
2023/04/02 08:37:23;;;;;;;4.20;1.27;;;3.90;99.90;;;;;;4996088;28;20184;-86
2023/04/02 08:39:49;;;;;;;4.23;1.33;;;4.00;99.90;;;;;;4995768;28;20180;-86
2023/04/02 08:42:48;;;;;;;2.53;1.00;;;4.00;99.90;;;;;;4997067;28;20697;-89
2023/04/02 08:45:50;;;;;;;2.80;1.10;;;4.00;99.90;;;;;;4994004;28;20684;-85
2023/04/02 08:48:16;;;;;;;6.23;1.10;;;4.00;99.90;;;;;;4997135;28;20621;-87
2023/04/02 08:50:44;;;;;;;3.23;0.80;;;4.10;99.90;;;;;;4996865;28;20292;-90
2023/04/02 08:53:20;;;;;;;1.90;0.97;;;4.10;99.90;;;;;;4995099;28;20175;-88
2023/04/02 08:56:19;;;;;;;5.20;1.10;;;4.10;99.90;;;;;;4992714;28;20579;-87
2023/04/02 08:58:53;;;;;;;4.87;0.90;;;4.10;99.90;;;;;;4998595;28;20219;-86
2023/04/02 09:01:24;;;;;;;2.90;1.17;;;4.10;99.90;;;;;;4997633;28;20582;-85
2023/04/02 09:03:57;;;;;;;2.17;0.80;;;4.20;99.90;;;;;;5012139;28;20216;-87
2023/04/02 09:06:23;;;;;;;2.27;1.00;;;4.20;99.90;;;;;;4996490;28;20176;-88
2023/04/02 09:08:51;;;;;;;6.00;1.10;;;4.20;99.90;;;;;;5012199;28;20242;-86
2023/04/02 09:11:20;;;;;;;3.80;1.00;;;4.20;99.90;;;;;;5011639;28;20270;-87
2023/04/02 09:13:58;;;;;;;4.37;0.83;;;4.20;99.90;;;;;;4996634;28;20196;-87
2023/04/02 09:16:40;;;;;;;4.47;1.00;;;4.20;99.90;;;;;;4996291;28;20172;-84
2023/04/02 09:19:35;;;;;;;2.23;1.00;;;4.30;99.90;;;;;;4985437;28;20554;-86
2023/04/02 09:22:26;;;;;;;5.43;1.43;;;4.30;99.90;;;;;;5008051;28;20207;-85
2023/04/02 09:24:54;;;;;;;2.50;1.03;;;4.40;99.90;;;;;;4996066;28;20226;-85
2023/04/02 09:27:26;;;;;;;5.80;1.10;;;4.50;99.90;;;;;;4996768;28;20178;-86
2023/04/02 09:30:02;;;;;;;5.40;1.23;;;4.40;99.90;;;;;;4991439;28;20211;-85
2023/04/02 09:32:34;;;;;;;2.93;1.13;;;4.60;99.90;;;;;;4986846;28;20183;-87
2023/04/02 09:35:15;;;;;;;6.30;0.93;;;4.70;99.90;;;;;;4994516;28;20295;-87
2023/04/02 09:37:42;;;;;;;1.60;0.90;;;4.80;99.90;;;;;;4996169;28;20193;-85
2023/04/02 09:40:31;;;;;;;2.17;0.80;;;4.80;99.90;;;;;;4995505;28;20183;-85
2023/04/02 09:43:32;;;;;;;3.50;1.20;;;4.90;99.90;;;;;;4994752;28;20180;-84
2023/04/02 09:46:14;;;;;;;3.37;1.17;;;5.00;99.90;;;;;;4994112;28;20191;-84
2023/04/02 09:48:52;;;;;;;2.90;1.00;;;5.00;99.90;;;;;;4995871;28;20172;-87
2023/04/02 09:51:26;;;;;;;1.47;0.80;;;5.10;99.90;;;;;;5010805;28;20635;-85
2023/04/02 09:54:11;;;;;;;3.07;1.67;;;5.10;99.90;;;;;;4995584;28;20203;-85
2023/04/02 09:56:39;;;;;;;5.00;1.20;;;5.20;99.90;;;;;;4994794;28;20184;-87
2023/04/02 09:59:20;;;;;;;3.53;1.37;;;5.30;99.90;;;;;;4995870;28;20180;-88
2023/04/02 10:02:06;;;;;;;5.77;1.40;;;5.20;99.90;;;;;;4993778;28;20215;-84
2023/04/02 10:04:47;;;;;;;2.63;1.30;;;5.20;99.90;;;;;;4993830;28;20187;-85
2023/04/02 10:07:46;;;;;;;4.23;1.50;;;5.20;99.90;;;;;;4995568;28;20254;-86
2023/04/02 10:10:41;;;;;;;3.33;1.43;;;5.20;99.90;;;;;;4995326;28;20164;-85
2023/04/02 10:13:32;;;;;;;3.87;1.47;;;5.20;99.90;;;;;;4994826;28;20647;-85
2023/04/02 10:16:16;;;;;;;3.03;1.17;;;5.30;99.90;;;;;;4995467;28;20266;-86
2023/04/02 10:19:16;;;;;;;2.30;0.97;;;5.30;99.90;;;;;;4995264;28;20643;-84
2023/04/02 10:21:44;;;;;;;4.57;1.47;;;5.40;99.90;;;;;;5010389;28;20180;-86
2023/04/02 10:24:16;;;;;;;3.83;1.60;;;5.50;99.90;;;;;;4995369;28;20164;-85
2023/04/02 10:27:05;;;;;;;1.97;1.10;;;5.60;99.90;;;;;;4993978;28;20262;-85
2023/04/02 10:29:42;;;;;;;4.80;1.40;;;5.60;99.90;;;;;;4995040;28;20167;-86
2023/04/02 10:32:15;;;;;;;3.77;1.33;;;5.60;99.90;;;;;;4994417;28;20188;-86
2023/04/02 10:34:50;;;;;;;2.63;1.30;;;5.60;99.90;;;;;;4981077;28;20216;-88
2023/04/02 10:38:01;;;;;;;3.50;1.10;;;5.60;99.90;;;;;;5004547;28;20241;-85
2023/04/02 10:40:34;;;;;;;3.87;1.80;;;5.60;99.90;;;;;;5015811;28;20198;-85
2023/04/02 10:43:27;;;;;;;4.70;1.67;;;5.70;99.90;;;;;;5023211;28;20182;-85
2023/04/02 10:46:10;;;;;;;7.40;2.80;;;5.90;99.90;;;;;;5006673;28;20628;-85
2023/04/02 10:48:42;;;;;;;4.60;1.90;;;5.70;99.90;;;;;;4995806;28;20190;-87
2023/04/02 10:51:42;;;;;;;1.53;0.90;;;5.70;99.90;;;;;;5000069;28;20254;-86
2023/04/02 10:54:30;;;;;;;4.13;1.50;;;5.70;99.90;;;;;;4996349;28;20293;-85
2023/04/02 10:57:07;;;;;;;4.37;1.07;;;5.70;99.90;;;;;;5005845;28;20183;-86
2023/04/02 10:59:37;;;;;;;6.37;1.53;;;5.80;99.90;;;;;;5001678;28;20175;-85
2023/04/02 11:02:23;;;;;;;1.60;1.27;;;5.90;99.90;;;;;;4996758;28;20183;-84
2023/04/02 11:04:51;;;;;;;6.03;1.37;;;6.00;99.90;;;;;;4999200;28;20259;-84
2023/04/02 11:07:25;;;;;;;1.07;0.80;;;6.30;99.90;;;;;;5015291;28;20219;-84
2023/04/02 11:09:55;;;;;;;2.97;1.10;;;6.50;99.90;;;;;;5006872;28;20581;-85
2023/04/02 11:12:30;;;;;;;2.13;1.00;;;6.40;99.90;;;;;;5005049;28;20183;-85
2023/04/02 11:14:59;;;;;;;2.43;1.00;;;6.20;99.90;;;;;;4999384;28;20249;-87
2023/04/02 11:17:25;;;;;;;3.00;0.90;;;6.20;99.90;;;;;;4996945;28;20210;-85
2023/04/02 11:19:51;;;;;;;3.83;1.30;;;6.10;99.90;;;;;;5003293;28;20640;-85
2023/04/02 11:22:22;;;;;;;6.17;1.10;;;6.10;99.90;;;;;;5012866;28;20193;-84
2023/04/02 11:24:54;;;;;;;5.30;2.20;;;6.30;99.90;;;;;;4996595;28;20205;-84
2023/04/02 11:27:32;;;;;;;2.37;0.87;;;6.60;99.90;;;;;;5004406;28;20176;-86
2023/04/02 11:30:24;;;;;;;2.97;0.87;;;6.90;99.90;;;;;;5002274;28;20187;-84
2023/04/02 11:32:50;;;;;;;2.07;0.70;;;7.10;99.90;;;;;;5015069;28;20212;-84
2023/04/02 11:35:30;;;;;;;3.10;0.80;;;7.30;99.90;;;;;;5007970;28;20241;-84
2023/04/02 11:37:59;;;;;;;3.13;0.90;;;7.40;99.90;;;;;;4994448;28;20191;-84
2023/04/02 11:40:46;;;;;;;3.73;0.80;;;7.60;99.90;;;;;;4996954;28;20187;-85
2023/04/02 11:43:34;;;;;;;3.10;1.47;;;7.50;99.90;;;;;;4988330;28;20566;-86
2023/04/02 11:46:28;;;;;;;1.77;1.07;;;7.60;99.90;;;;;;4997789;28;20210;-86
2023/04/02 11:49:36;;;;;;;1.40;0.80;;;7.60;99.90;;;;;;5001557;28;20195;-83
2023/04/02 11:52:04;;;;;;;1.80;0.87;;;7.70;99.90;;;;;;5004426;28;20514;-82
2023/04/02 11:54:36;;;;;;;1.77;0.70;;;7.70;99.90;;;;;;5014222;28;20239;-84
2023/04/02 11:57:31;;;;;;;1.63;0.80;;;7.70;99.90;;;;;;5000764;28;20298;-83
2023/04/02 12:00:16;;;;;;;7.70;1.13;;;7.40;99.90;;;;;;5001575;28;20253;-82
2023/04/02 12:03:12;;;;;;;11.63;4.30;;;7.20;99.90;;;;;;4998061;28;20184;-83
2023/04/02 12:06:24;;;;;;;3.57;1.53;;;7.10;99.90;;;;;;5005025;28;20250;-83
2023/04/02 12:09:37;;;;;;;1.10;0.70;;;7.20;99.90;;;;;;4998216;28;20238;-83
2023/04/02 12:12:26;;;;;;;4.77;2.20;;;7.30;99.90;;;;;;5004527;28;20183;-83
2023/04/02 12:14:57;;;;;;;6.97;3.10;;;7.30;99.90;;;;;;5014439;28;20211;-82
2023/04/02 12:17:33;;;;;;;6.37;1.10;;;7.20;99.90;;;;;;5003203;28;20187;-80
2023/04/02 12:20:19;;;;;;;8.93;2.70;;;7.40;99.90;;;;;;4996926;28;20168;-83
2023/04/02 12:22:55;;;;;;;7.57;2.67;;;7.70;99.90;;;;;;5015640;28;20184;-83
2023/04/02 12:25:38;;;;;;;3.73;2.27;;;8.20;99.90;;;;;;4986401;28;20188;-83
2023/04/02 12:28:17;;;;;;;7.60;2.77;;;8.00;99.90;;;;;;4995594;28;20565;-82
2023/04/02 12:30:48;;;;;;;4.07;1.87;;;7.60;99.90;;;;;;4994847;28;20191;-82
2023/04/02 12:33:22;;;;;;;5.13;1.77;;;7.70;99.90;;;;;;4997067;28;20288;-83
2023/04/02 12:35:53;;;;;;;4.63;1.17;;;7.80;99.90;;;;;;4996665;28;20254;-83
2023/04/02 12:38:30;;;;;;;5.83;1.60;;;8.10;99.90;;;;;;4995607;28;20180;-82
2023/04/02 12:41:03;;;;;;;3.60;1.90;;;8.40;99.90;;;;;;4996761;28;20223;-82
2023/04/02 12:43:31;;;;;;;6.43;1.03;;;8.70;99.90;;;;;;4994489;28;20190;-83
2023/04/02 12:46:00;;;;;;;3.03;1.23;;;8.60;99.90;;;;;;5011969;28;20693;-83
2023/04/02 12:48:27;;;;;;;4.37;1.60;;;8.40;99.90;;;;;;4996323;28;20176;-84
2023/04/02 12:50:55;;;;;;;7.40;2.03;;;7.90;99.90;;;;;;4996369;28;20180;-82
2023/04/02 12:53:28;;;;;;;2.80;1.30;;;7.90;99.90;;;;;;4995103;28;20183;-82
2023/04/02 12:55:55;;;;;;;1.53;0.90;;;8.20;99.10;;;;;;4996800;28;20189;-82
2023/04/02 12:58:36;;;;;;;4.13;1.53;;;8.40;99.90;;;;;;4996390;28;20310;-86
2023/04/02 13:01:17;;;;;;;3.83;2.00;;;8.50;99.00;;;;;;4994645;28;20518;-82
2023/04/02 13:03:57;;;;;;;3.67;1.73;;;8.60;99.90;;;;;;4992982;28;20214;-82
2023/04/02 13:06:25;;;;;;;2.70;1.43;;;8.60;99.90;;;;;;4995140;28;20243;-82
2023/04/02 13:08:51;;;;;;;3.20;2.00;;;8.30;99.90;;;;;;4995174;28;20168;-83
2023/04/02 13:11:18;;;;;;;4.03;0.80;;;8.10;99.90;;;;;;4995134;28;20254;-83
2023/04/02 13:13:46;;;;;;;3.07;1.10;;;8.10;99.90;;;;;;4995633;28;20557;-83
2023/04/02 13:16:14;;;;;;;1.77;0.80;;;8.20;99.90;;;;;;4995375;28;20215;-85
2023/04/02 13:18:41;;;;;;;3.77;0.83;;;8.00;99.90;;;;;;4995706;28;20198;-84
2023/04/02 13:21:16;;;;;;;4.47;2.50;;;7.90;99.90;;;;;;4995913;28;20190;-82
2023/04/02 13:23:43;;;;;;;2.40;1.23;;;7.80;99.90;;;;;;4997016;28;20175;-82
2023/04/02 13:26:34;;;;;;;5.00;1.30;;;7.90;99.90;;;;;;4996931;28;20183;-82
2023/04/02 13:29:08;;;;;;;3.00;1.33;;;8.40;99.90;;;;;;4995294;28;20191;-85
2023/04/02 13:31:34;;;;;;;2.73;1.07;;;8.50;98.20;;;;;;4995405;28;20171;-85
2023/04/02 13:34:00;;;;;;;2.33;0.90;;;8.70;99.80;;;;;;4996112;28;20203;-84
2023/04/02 13:36:28;;;;;;;2.87;0.80;;;8.80;99.00;;;;;;4994648;28;20194;-84
2023/04/02 13:38:54;;;;;;;4.80;1.10;;;8.80;98.90;;;;;;4995822;28;20168;-85
2023/04/02 13:41:26;;;;;;;3.97;1.10;;;8.80;99.90;;;;;;4995678;28;20197;-85
2023/04/02 13:43:53;;;;;;;3.57;1.00;;;8.60;99.90;;;;;;4995757;28;20172;-85
2023/04/02 13:46:24;;;;;;;3.40;1.10;;;8.50;99.90;;;;;;4994229;28;20518;-84
2023/04/02 13:48:51;;;;;;;4.97;1.37;;;8.20;99.90;;;;;;4994334;28;20218;-86